Time;durP1;ratioP1;P1;durP2;ratioP2;P2;SDS_P1;SDS_P2;PMS_P1;PMS_P2;Temp;Humidity;BMP_temperature;BMP_pressure;BME280_temperature;BME280_humidity;BME280_pressure;Samples;Min_cycle;Max_cycle;Signal;HPM_P1;HPM_P2
2022/11/14 00:00:57;;;;;;;16.37;13.70;;;5.40;96.30;;;;;;4917378;29;20464;-73
2022/11/14 00:03:22;;;;;;;16.00;10.70;;;5.40;96.30;;;;;;4917256;29;20276;-73
2022/11/14 00:05:48;;;;;;;17.97;13.47;;;5.50;96.30;;;;;;4917306;29;20644;-73
2022/11/14 00:08:19;;;;;;;16.90;12.97;;;5.40;96.30;;;;;;4916760;29;20184;-74
2022/11/14 00:10:46;;;;;;;19.47;13.20;;;5.40;96.30;;;;;;4917144;29;20723;-74
2022/11/14 00:13:12;;;;;;;18.33;11.70;;;5.40;96.30;;;;;;4915868;29;20425;-74
2022/11/14 00:15:38;;;;;;;15.30;10.30;;;5.50;96.30;;;;;;4916174;29;20767;-74
2022/11/14 00:18:04;;;;;;;13.63;10.20;;;5.50;96.30;;;;;;4916590;29;20418;-75
2022/11/14 00:20:30;;;;;;;16.40;12.73;;;5.40;96.30;;;;;;4915808;29;20186;-75
2022/11/14 00:22:56;;;;;;;17.23;12.00;;;5.40;96.30;;;;;;4915691;29;20646;-75
2022/11/14 00:25:22;;;;;;;17.17;11.70;;;5.40;96.30;;;;;;4916882;29;20443;-75
2022/11/14 00:27:47;;;;;;;16.03;11.37;;;5.50;96.30;;;;;;4916388;29;20173;-75
2022/11/14 00:30:13;;;;;;;14.77;12.30;;;5.50;96.30;;;;;;4916882;29;20173;-76
2022/11/14 00:32:38;;;;;;;15.10;11.20;;;5.40;96.30;;;;;;4917000;29;20668;-76
2022/11/14 00:35:04;;;;;;;15.93;11.10;;;5.60;96.30;;;;;;4916715;29;20219;-75
2022/11/14 00:37:30;;;;;;;18.47;12.90;;;5.50;96.30;;;;;;4916209;29;20187;-75
2022/11/14 00:39:55;;;;;;;15.07;10.37;;;5.50;96.30;;;;;;4916626;29;20180;-75
2022/11/14 00:42:21;;;;;;;16.93;11.80;;;5.60;96.30;;;;;;4916340;29;20216;-74
2022/11/14 00:44:46;;;;;;;14.67;11.30;;;5.60;96.30;;;;;;4916618;29;20180;-73
2022/11/14 00:47:12;;;;;;;16.50;11.80;;;5.50;96.30;;;;;;4915966;29;20207;-74
2022/11/14 00:49:37;;;;;;;18.00;11.40;;;5.60;96.30;;;;;;4915207;29;20247;-74
2022/11/14 00:52:03;;;;;;;13.70;11.33;;;5.50;96.30;;;;;;4920144;29;20301;-74
2022/11/14 00:54:28;;;;;;;9.63;8.63;;;5.50;96.30;;;;;;4935535;29;20555;-74
2022/11/14 00:56:54;;;;;;;16.20;12.37;;;5.50;96.30;;;;;;4934740;29;20179;-74
2022/11/14 00:59:19;;;;;;;13.80;10.73;;;5.50;96.30;;;;;;4935377;29;20267;-74
2022/11/14 05:01:57;;;;;;;26.77;16.73;;;5.10;96.30;;;;;;5194026;23;20543;-75
2022/11/14 05:04:23;;;;;;;23.57;15.90;;;5.00;96.30;;;;;;4916287;29;20480;-73
2022/11/14 05:06:48;;;;;;;24.00;14.33;;;5.00;96.30;;;;;;4916576;29;20234;-74
2022/11/14 05:09:14;;;;;;;33.87;21.30;;;5.10;96.30;;;;;;4916264;29;20181;-74
2022/11/14 05:11:39;;;;;;;26.97;17.57;;;5.10;96.30;;;;;;4915399;29;20228;-75
2022/11/14 05:14:05;;;;;;;28.03;19.20;;;5.10;96.30;;;;;;4915769;29;20181;-73
2022/11/14 05:16:30;;;;;;;21.57;16.37;;;5.10;96.30;;;;;;4919044;29;20179;-73
2022/11/14 05:18:56;;;;;;;22.27;16.43;;;5.20;96.30;;;;;;4914936;29;20541;-74
2022/11/14 05:21:21;;;;;;;24.40;18.13;;;5.20;96.30;;;;;;4916498;29;20198;-73
2022/11/14 05:23:47;;;;;;;31.80;22.30;;;5.20;96.30;;;;;;4916744;29;20238;-73
2022/11/14 05:26:17;;;;;;;21.57;13.60;;;5.10;96.30;;;;;;4915988;29;20228;-74
2022/11/14 05:28:42;;;;;;;19.23;14.23;;;5.10;96.30;;;;;;4916871;29;20181;-75
2022/11/14 05:31:16;;;;;;;21.10;14.63;;;5.10;96.30;;;;;;4915872;29;20424;-76
2022/11/14 05:33:42;;;;;;;28.43;16.83;;;5.10;96.30;;;;;;4916092;29;20161;-75
2022/11/14 05:36:14;;;;;;;26.50;17.57;;;5.20;96.30;;;;;;4916015;29;20413;-74
2022/11/14 05:38:40;;;;;;;23.93;17.30;;;5.10;96.30;;;;;;4915676;29;20492;-76
2022/11/14 05:41:08;;;;;;;22.20;17.90;;;5.10;96.30;;;;;;4915738;29;20999;-74
2022/11/14 05:43:33;;;;;;;27.27;17.00;;;5.10;96.30;;;;;;4915576;29;20815;-74
2022/11/14 05:46:00;;;;;;;25.43;18.63;;;5.10;96.30;;;;;;4915790;29;20417;-74
2022/11/14 05:48:26;;;;;;;18.33;14.73;;;5.10;96.30;;;;;;4915271;29;20179;-75
2022/11/14 05:50:55;;;;;;;26.37;16.57;;;5.10;96.30;;;;;;4915614;29;20788;-74
2022/11/14 05:53:20;;;;;;;19.80;13.70;;;5.20;96.30;;;;;;4915606;29;20168;-75
2022/11/14 05:55:46;;;;;;;26.97;18.40;;;5.10;96.30;;;;;;4918725;29;20408;-74
2022/11/14 05:58:11;;;;;;;24.30;18.93;;;5.20;96.30;;;;;;4918613;29;20176;-75
2022/11/14 06:00:37;;;;;;;20.30;13.60;;;5.10;96.30;;;;;;4917825;29;20632;-74
2022/11/14 06:03:02;;;;;;;21.43;15.73;;;5.30;96.30;;;;;;4919376;29;20208;-74
2022/11/14 06:05:28;;;;;;;22.40;14.93;;;5.20;96.30;;;;;;4919378;29;20184;-73
2022/11/14 06:07:55;;;;;;;23.80;16.47;;;5.30;96.30;;;;;;4918818;29;20176;-74
2022/11/14 06:10:21;;;;;;;17.37;15.00;;;5.30;96.30;;;;;;4918908;29;20183;-74
2022/11/14 06:12:47;;;;;;;20.80;15.47;;;5.20;96.30;;;;;;4918023;29;20428;-74
2022/11/14 06:15:12;;;;;;;21.67;16.03;;;5.20;96.30;;;;;;4919179;29;20564;-74
2022/11/14 06:17:38;;;;;;;18.03;13.10;;;5.20;96.30;;;;;;4912523;29;20221;-75
2022/11/14 06:20:04;;;;;;;19.93;15.40;;;5.30;96.30;;;;;;4897548;29;20181;-75
2022/11/14 06:22:29;;;;;;;23.13;15.87;;;5.30;96.30;;;;;;4898610;29;20221;-75
2022/11/14 06:24:55;;;;;;;22.63;15.97;;;5.20;96.30;;;;;;4934814;29;20431;-75
2022/11/14 06:27:21;;;;;;;17.13;13.33;;;5.30;96.30;;;;;;4934653;29;20179;-74
2022/11/14 06:29:46;;;;;;;30.10;19.90;;;5.20;96.30;;;;;;4935007;29;20658;-75
2022/11/14 06:32:11;;;;;;;25.63;15.00;;;5.20;96.30;;;;;;4936474;29;20212;-74
2022/11/14 06:34:37;;;;;;;17.70;13.27;;;5.20;96.30;;;;;;4936403;29;20190;-74
2022/11/14 06:37:04;;;;;;;24.00;19.70;;;5.20;96.30;;;;;;4916026;29;20188;-75
2022/11/14 06:39:29;;;;;;;19.77;16.03;;;5.20;96.30;;;;;;4917583;29;20179;-74
2022/11/14 06:41:55;;;;;;;21.10;15.50;;;5.20;96.30;;;;;;4916903;29;20459;-75
2022/11/14 06:44:21;;;;;;;23.97;19.03;;;5.20;96.30;;;;;;4916054;29;20216;-74
2022/11/14 06:46:47;;;;;;;26.20;16.80;;;5.20;96.30;;;;;;4916544;29;20196;-76
2022/11/14 06:49:12;;;;;;;17.63;13.10;;;5.30;96.30;;;;;;4917078;29;20451;-74
2022/11/14 06:51:38;;;;;;;18.57;14.30;;;5.30;96.30;;;;;;4917111;29;20207;-74
2022/11/14 06:54:03;;;;;;;23.53;16.97;;;5.40;96.30;;;;;;4916777;29;20172;-74
2022/11/14 06:56:29;;;;;;;21.60;16.57;;;5.50;96.30;;;;;;4916742;29;20180;-74
2022/11/14 06:58:54;;;;;;;18.53;13.67;;;5.50;96.30;;;;;;4916225;29;20835;-74
2022/11/14 07:01:22;;;;;;;25.27;20.90;;;5.50;96.30;;;;;;4916564;29;20204;-74
2022/11/14 07:03:48;;;;;;;24.23;19.57;;;5.40;96.30;;;;;;4916760;29;20208;-75
2022/11/14 07:06:22;;;;;;;24.27;16.67;;;5.40;96.30;;;;;;4915885;29;20896;-75
2022/11/14 07:08:48;;;;;;;19.93;17.80;;;5.50;96.30;;;;;;4916096;29;20480;-75
2022/11/14 07:11:23;;;;;;;22.10;13.53;;;5.50;96.30;;;;;;4916092;29;20944;-74
2022/11/14 07:13:57;;;;;;;20.80;15.63;;;5.50;96.30;;;;;;4905526;29;20479;-74
2022/11/14 07:16:30;;;;;;;23.80;17.33;;;5.60;96.30;;;;;;4898918;29;20465;-73
2022/11/14 07:19:00;;;;;;;21.73;15.60;;;5.50;96.30;;;;;;4898257;29;20421;-74
2022/11/14 07:21:27;;;;;;;27.00;19.43;;;5.60;96.30;;;;;;4899180;29;20544;-74
2022/11/14 07:23:54;;;;;;;17.83;15.87;;;5.60;96.30;;;;;;4904522;29;20470;-73
2022/11/14 07:26:19;;;;;;;15.80;12.53;;;5.60;96.30;;;;;;4911233;29;20444;-73
2022/11/14 07:28:45;;;;;;;31.13;17.80;;;5.60;96.30;;;;;;4917301;29;20537;-73
2022/11/14 07:31:13;;;;;;;29.07;20.63;;;5.60;96.30;;;;;;4917829;29;20275;-73
2022/11/14 07:33:39;;;;;;;27.23;19.83;;;5.60;96.30;;;;;;4917659;29;20180;-74
2022/11/14 07:36:05;;;;;;;26.03;18.57;;;5.60;96.30;;;;;;4915093;29;20636;-74
2022/11/14 07:38:32;;;;;;;26.20;19.37;;;5.60;96.30;;;;;;4916804;29;20423;-74
2022/11/14 07:41:00;;;;;;;22.80;17.27;;;5.60;96.30;;;;;;4916370;29;20475;-74
2022/11/14 07:43:27;;;;;;;25.50;17.40;;;5.50;96.30;;;;;;4916381;29;20468;-74
2022/11/14 07:45:53;;;;;;;16.70;12.67;;;5.50;96.30;;;;;;4919780;29;20995;-74
2022/11/14 07:48:20;;;;;;;25.07;18.40;;;5.60;96.30;;;;;;4919130;29;20503;-74
2022/11/14 07:50:46;;;;;;;27.00;20.70;;;5.70;96.30;;;;;;4917961;29;20188;-74
2022/11/14 07:53:12;;;;;;;29.80;22.23;;;5.80;96.30;;;;;;4922557;29;20906;-74
2022/11/14 07:55:38;;;;;;;30.57;22.17;;;5.80;96.30;;;;;;4935983;29;20171;-74
2022/11/14 07:58:04;;;;;;;28.27;21.97;;;5.80;96.30;;;;;;4934507;29;20179;-74
2022/11/14 08:00:29;;;;;;;22.90;17.67;;;5.80;96.30;;;;;;4936164;29;20451;-74
2022/11/14 08:02:55;;;;;;;28.60;23.30;;;5.80;96.30;;;;;;4936388;29;20275;-74
2022/11/14 08:05:21;;;;;;;27.47;22.20;;;6.00;96.30;;;;;;4931149;29;20188;-74
2022/11/14 08:07:50;;;;;;;29.60;22.97;;;6.20;96.30;;;;;;4916675;29;20580;-74
2022/11/14 08:10:16;;;;;;;24.40;20.60;;;6.30;96.30;;;;;;4916992;29;20172;-74
2022/11/14 08:12:43;;;;;;;27.23;19.67;;;6.40;96.30;;;;;;4917138;29;20440;-74
2022/11/14 08:15:10;;;;;;;25.43;19.90;;;6.50;96.30;;;;;;4917088;29;20495;-74
2022/11/14 08:17:35;;;;;;;23.17;17.70;;;6.60;96.30;;;;;;4916487;29;20444;-73
2022/11/14 08:20:01;;;;;;;24.47;18.07;;;6.70;96.30;;;;;;4915802;29;20460;-74
2022/11/14 08:22:27;;;;;;;19.23;15.47;;;6.80;96.30;;;;;;4916857;29;20236;-73
2022/11/14 08:24:52;;;;;;;39.43;28.13;;;6.90;96.30;;;;;;4916779;29;20172;-74
2022/11/14 08:27:18;;;;;;;24.50;19.40;;;6.90;96.30;;;;;;4916087;29;20180;-74
2022/11/14 08:29:43;;;;;;;24.77;18.53;;;6.80;96.30;;;;;;4916886;29;20173;-74
2022/11/14 08:32:09;;;;;;;20.50;16.43;;;6.80;96.30;;;;;;4916737;29;20196;-74
2022/11/14 08:34:35;;;;;;;15.17;11.23;;;6.80;96.30;;;;;;4916681;29;20181;-74
2022/11/14 08:37:01;;;;;;;16.00;13.10;;;6.90;96.30;;;;;;4916246;29;20183;-74
2022/11/14 08:39:28;;;;;;;17.53;13.40;;;7.00;96.30;;;;;;4916616;29;20420;-73
2022/11/14 08:41:53;;;;;;;16.00;10.97;;;6.90;96.30;;;;;;4921570;29;20794;-73
2022/11/14 08:44:19;;;;;;;16.30;12.17;;;6.90;96.30;;;;;;4934271;29;20424;-74
2022/11/14 08:46:44;;;;;;;17.03;12.73;;;6.90;96.30;;;;;;4935037;29;20171;-74
2022/11/14 08:49:10;;;;;;;16.27;12.47;;;6.90;96.30;;;;;;4935465;29;20179;-73
2022/11/14 08:51:36;;;;;;;13.50;10.73;;;6.90;96.30;;;;;;4935256;29;20199;-74
2022/11/14 08:54:01;;;;;;;17.07;11.97;;;6.90;96.30;;;;;;4935311;29;20183;-73
2022/11/14 08:56:27;;;;;;;18.43;14.53;;;6.80;96.30;;;;;;4935327;29;20229;-73
2022/11/14 08:58:52;;;;;;;15.80;12.03;;;6.80;96.30;;;;;;4934911;29;20195;-73
2022/11/14 09:01:18;;;;;;;17.40;13.50;;;6.90;96.30;;;;;;4935330;29;20279;-73
2022/11/14 09:03:43;;;;;;;14.47;12.53;;;7.00;96.30;;;;;;4934409;29;20202;-74
2022/11/14 09:06:09;;;;;;;18.10;14.73;;;7.10;96.30;;;;;;4932021;29;20937;-74
2022/11/14 09:08:35;;;;;;;16.90;12.80;;;7.10;96.30;;;;;;4915589;29;20181;-73
2022/11/14 09:11:01;;;;;;;15.47;13.10;;;7.30;96.30;;;;;;4916054;29;20200;-73
2022/11/14 09:13:27;;;;;;;16.50;11.30;;;7.20;96.30;;;;;;4915974;29;20263;-73
2022/11/14 09:15:52;;;;;;;18.10;12.70;;;7.40;96.30;;;;;;4916239;29;20496;-73
2022/11/14 09:18:18;;;;;;;19.13;14.40;;;7.50;96.30;;;;;;4915430;29;20231;-73
2022/11/14 09:20:44;;;;;;;13.47;9.47;;;7.60;96.30;;;;;;4915953;29;20213;-73
2022/11/14 09:23:09;;;;;;;16.87;12.80;;;7.50;96.30;;;;;;4915832;29;20680;-73
2022/11/14 09:25:36;;;;;;;18.07;12.73;;;7.60;96.30;;;;;;4915629;29;20252;-73
2022/11/14 09:28:08;;;;;;;21.10;11.37;;;7.50;96.30;;;;;;4915393;29;20259;-73
2022/11/14 09:30:34;;;;;;;18.13;11.97;;;7.40;96.30;;;;;;4915577;29;20963;-73
2022/11/14 09:33:04;;;;;;;15.77;12.47;;;7.40;96.30;;;;;;4915937;29;20409;-73
2022/11/14 09:35:30;;;;;;;14.63;11.17;;;7.30;96.30;;;;;;4915714;29;20416;-73
2022/11/14 09:38:04;;;;;;;18.70;9.13;;;7.10;96.30;;;;;;4915288;29;20503;-73
2022/11/14 09:40:50;;;;;;;13.80;9.07;;;7.10;96.30;;;;;;4915527;29;20929;-73
2022/11/14 09:43:34;;;;;;;16.00;12.37;;;6.90;96.30;;;;;;4915641;29;20459;-73
2022/11/14 09:46:01;;;;;;;17.53;13.50;;;6.80;96.30;;;;;;4915693;29;20412;-73
2022/11/14 09:48:28;;;;;;;15.93;11.47;;;6.80;96.30;;;;;;4914137;29;20905;-73
2022/11/14 09:51:22;;;;;;;15.70;11.90;;;6.80;96.30;;;;;;4915719;29;20435;-73
2022/11/14 09:53:56;;;;;;;19.43;12.83;;;6.80;96.30;;;;;;4915688;29;20412;-73
2022/11/14 09:56:24;;;;;;;16.23;12.27;;;6.80;96.30;;;;;;4914246;29;20421;-73
2022/11/14 09:58:50;;;;;;;19.33;14.63;;;6.90;96.30;;;;;;4914313;29;20455;-73
2022/11/14 10:01:50;;;;;;;16.53;13.13;;;7.00;96.30;;;;;;4915502;29;20487;-73
2022/11/14 10:04:37;;;;;;;14.70;12.60;;;7.00;96.30;;;;;;4915711;29;20322;-73
2022/11/14 10:07:32;;;;;;;16.03;10.30;;;6.90;96.30;;;;;;4914940;29;21216;-73
2022/11/14 10:10:25;;;;;;;12.50;9.50;;;7.10;96.30;;;;;;4915607;29;20511;-73
2022/11/14 10:13:13;;;;;;;15.40;11.53;;;7.50;96.30;;;;;;4915598;29;20479;-73
2022/11/14 10:15:51;;;;;;;15.93;12.53;;;7.80;96.30;;;;;;4915508;29;20467;-73
2022/11/14 10:18:45;;;;;;;17.60;11.30;;;8.20;96.30;;;;;;4914804;29;20455;-73
2022/11/14 10:21:22;;;;;;;14.17;11.63;;;7.70;96.30;;;;;;4915382;29;20438;-73
2022/11/14 10:23:57;;;;;;;12.93;8.60;;;8.10;96.30;;;;;;4915453;29;20468;-73
2022/11/14 10:26:31;;;;;;;16.00;12.17;;;8.50;96.30;;;;;;4914134;29;20416;-73
2022/11/14 10:29:03;;;;;;;15.03;12.07;;;8.40;96.30;;;;;;4913128;29;20420;-73
2022/11/14 10:32:06;;;;;;;14.83;10.90;;;8.60;96.30;;;;;;4912988;29;20444;-73
2022/11/14 10:34:38;;;;;;;10.80;9.53;;;8.50;96.30;;;;;;4922059;29;20428;-72
2022/11/14 10:37:25;;;;;;;16.80;11.23;;;8.70;96.30;;;;;;4912421;29;21022;-73
2022/11/14 10:40:22;;;;;;;11.33;8.03;;;8.80;96.30;;;;;;4913122;29;20419;-73
2022/11/14 10:43:02;;;;;;;14.83;10.43;;;8.60;96.30;;;;;;4915101;29;20518;-73
2022/11/14 10:45:43;;;;;;;14.73;12.20;;;8.60;96.30;;;;;;4916064;29;20419;-72
2022/11/14 10:48:13;;;;;;;15.23;10.60;;;8.90;96.30;;;;;;4915221;29;20455;-73
2022/11/14 10:50:50;;;;;;;14.03;11.27;;;9.10;96.30;;;;;;4914554;29;20487;-73
2022/11/14 10:53:27;;;;;;;13.30;9.43;;;8.80;96.30;;;;;;4916424;29;20415;-73
2022/11/14 10:55:54;;;;;;;13.33;10.50;;;8.50;96.30;;;;;;4915940;29;20847;-73
2022/11/14 10:58:20;;;;;;;13.63;11.20;;;8.50;96.30;;;;;;4915658;29;20463;-73
2022/11/14 11:00:46;;;;;;;12.07;8.90;;;8.60;96.30;;;;;;4916098;29;20448;-73
2022/11/14 11:03:12;;;;;;;15.03;10.70;;;8.70;96.30;;;;;;4916007;29;20861;-73
2022/11/14 11:05:49;;;;;;;11.87;9.93;;;8.60;96.30;;;;;;4915482;29;20596;-73
2022/11/14 11:11:28;;;;;;;10.37;8.60;;;8.30;96.30;;;;;;4899378;29;20477;-73
2022/11/14 11:13:55;;;;;;;13.77;10.17;;;8.20;96.30;;;;;;4899304;29;20477;-73
2022/11/14 11:16:23;;;;;;;7.57;6.87;;;8.20;96.30;;;;;;4899860;29;20409;-73
2022/11/14 11:18:49;;;;;;;13.53;10.03;;;7.90;96.30;;;;;;4899338;29;20781;-73
2022/11/14 11:23:55;;;;;;;19.83;12.17;;;8.10;96.30;;;;;;5751683;23;21079;-74
2022/11/14 11:26:27;;;;;;;14.07;10.77;;;8.00;96.30;;;;;;4954776;29;21165;-74
2022/11/14 11:29:11;;;;;;;15.63;12.70;;;8.00;96.30;;;;;;4955167;29;20498;-75
2022/11/14 11:31:51;;;;;;;20.57;12.57;;;8.10;96.30;;;;;;4955674;29;20478;-74
2022/11/14 11:34:25;;;;;;;19.00;11.07;;;8.30;96.30;;;;;;4955244;29;20407;-75
2022/11/14 11:37:18;;;;;;;14.20;10.77;;;8.10;96.30;;;;;;4955529;29;20407;-74
2022/11/14 11:39:51;;;;;;;12.60;10.37;;;8.10;96.30;;;;;;4929335;28;20428;-74
2022/11/14 11:42:44;;;;;;;12.87;8.50;;;8.30;96.30;;;;;;4956015;29;20937;-74
2022/11/14 11:45:17;;;;;;;13.93;10.50;;;8.50;96.30;;;;;;4955948;29;20489;-75
2022/11/14 11:47:57;;;;;;;14.50;10.60;;;8.70;96.30;;;;;;4955250;29;20637;-74
2022/11/14 11:50:23;;;;;;;18.73;11.40;;;8.60;96.30;;;;;;4955785;29;20407;-74
2022/11/14 11:53:17;;;;;;;11.33;10.07;;;8.90;96.30;;;;;;4955385;28;20414;-74
2022/11/14 11:55:46;;;;;;;16.63;11.77;;;8.70;96.30;;;;;;4955678;29;20410;-75
2022/11/14 11:58:43;;;;;;;22.50;11.47;;;8.90;96.30;;;;;;4954941;29;20429;-75
2022/11/14 12:01:12;;;;;;;15.97;11.33;;;9.00;96.30;;;;;;4955577;29;20531;-75
2022/11/14 12:03:38;;;;;;;14.70;10.87;;;9.10;96.30;;;;;;4955463;29;20458;-74
2022/11/14 12:06:12;;;;;;;9.53;8.53;;;8.90;96.30;;;;;;4955426;29;20410;-75
2022/11/14 12:08:59;;;;;;;17.70;11.13;;;8.90;96.30;;;;;;4954859;28;20256;-74
2022/11/14 12:11:26;;;;;;;15.23;10.93;;;9.00;96.30;;;;;;4955289;29;20467;-74
2022/11/14 12:14:00;;;;;;;19.27;12.13;;;9.20;96.30;;;;;;4955255;29;21122;-75
2022/11/14 12:16:44;;;;;;;10.93;8.17;;;9.30;96.30;;;;;;4953937;29;20426;-74
2022/11/14 12:19:29;;;;;;;11.33;9.27;;;9.10;96.30;;;;;;4955166;29;20418;-74
2022/11/14 12:22:27;;;;;;;11.60;8.77;;;9.20;96.30;;;;;;4955010;29;20908;-74
2022/11/14 12:25:17;;;;;;;16.50;10.63;;;9.00;96.30;;;;;;4954986;29;20437;-75
2022/11/14 12:28:07;;;;;;;12.03;8.37;;;9.10;96.30;;;;;;4954456;29;20415;-74
2022/11/14 12:30:35;;;;;;;17.60;10.93;;;8.70;96.30;;;;;;4954918;28;20427;-74
2022/11/14 12:33:17;;;;;;;14.70;9.40;;;8.50;96.30;;;;;;4953712;29;20418;-75
2022/11/14 12:35:53;;;;;;;18.13;11.53;;;8.40;96.30;;;;;;4954991;28;20410;-74
2022/11/14 12:38:21;;;;;;;15.90;11.27;;;8.40;96.30;;;;;;4954523;29;20927;-74
2022/11/14 12:40:55;;;;;;;13.67;10.93;;;8.40;96.30;;;;;;4954600;29;20514;-74
2022/11/14 12:43:27;;;;;;;16.57;11.93;;;8.20;96.30;;;;;;4952168;29;20555;-74
2022/11/14 12:45:52;;;;;;;17.13;9.60;;;8.30;96.30;;;;;;4954756;29;20415;-74
2022/11/14 12:48:29;;;;;;;18.37;12.37;;;8.30;96.30;;;;;;4954032;28;20627;-74
2022/11/14 12:50:56;;;;;;;23.00;9.97;;;8.20;96.30;;;;;;4954580;29;20226;-74
2022/11/14 12:53:36;;;;;;;14.17;11.40;;;8.20;96.30;;;;;;4954454;28;20439;-75
2022/11/14 12:56:24;;;;;;;19.43;10.90;;;8.10;96.30;;;;;;4954497;29;20502;-74
2022/11/14 12:59:16;;;;;;;17.10;11.93;;;8.10;96.30;;;;;;4952829;29;20407;-74
2022/11/14 13:01:51;;;;;;;17.70;12.43;;;8.00;96.30;;;;;;4953107;29;20442;-74
2022/11/14 13:04:41;;;;;;;11.90;9.00;;;8.00;96.30;;;;;;4953793;28;20442;-74
2022/11/14 13:07:34;;;;;;;14.33;11.53;;;8.00;96.30;;;;;;4953774;28;20479;-74
2022/11/14 13:10:26;;;;;;;10.93;7.63;;;8.00;96.30;;;;;;4954349;29;20466;-74
2022/11/14 13:22:10;;;;;;;11.87;9.43;;;7.80;96.30;;;;;;4954271;29;20457;-74
2022/11/14 13:24:57;;;;;;;17.60;12.73;;;7.90;96.30;;;;;;4953948;28;20438;-74
2022/11/14 13:27:29;;;;;;;11.33;9.93;;;8.00;96.30;;;;;;4953501;29;20818;-74
2022/11/14 13:29:56;;;;;;;14.13;9.57;;;8.10;96.30;;;;;;4954134;28;20960;-74
2022/11/14 13:32:40;;;;;;;18.10;12.17;;;8.10;96.30;;;;;;4954102;28;20437;-74
2022/11/14 13:35:40;;;;;;;16.10;11.57;;;8.10;96.30;;;;;;4952881;29;20414;-75
2022/11/14 13:38:32;;;;;;;14.50;10.90;;;8.10;96.30;;;;;;4953516;29;20825;-74
2022/11/14 13:41:30;;;;;;;15.03;11.13;;;8.00;96.30;;;;;;4954103;29;20466;-74
2022/11/14 13:44:33;;;;;;;16.37;11.70;;;7.80;96.30;;;;;;4948706;29;20853;-75
2022/11/14 13:47:39;;;;;;;14.43;10.07;;;7.60;96.30;;;;;;4953513;29;20446;-75
2022/11/14 13:50:12;;;;;;;16.90;11.93;;;7.50;96.30;;;;;;4959003;28;20442;-74
2022/11/14 13:52:44;;;;;;;15.93;10.40;;;7.40;96.30;;;;;;4956872;28;20444;-74
2022/11/14 13:55:21;;;;;;;17.63;13.73;;;7.20;96.30;;;;;;4955826;28;20513;-74
2022/11/14 13:58:25;;;;;;;12.63;9.90;;;7.20;96.30;;;;;;4956899;28;20967;-74
2022/11/14 14:01:06;;;;;;;16.50;12.43;;;7.20;96.30;;;;;;4950635;29;20425;-74
2022/11/14 14:03:57;;;;;;;14.67;10.30;;;7.10;96.30;;;;;;4950731;29;20457;-75
2022/11/14 14:06:50;;;;;;;14.67;11.20;;;7.20;96.30;;;;;;4944829;29;20418;-73
2022/11/14 14:09:19;;;;;;;15.43;11.80;;;7.20;96.30;;;;;;4953280;29;20415;-72
2022/11/14 14:12:03;;;;;;;21.73;15.27;;;7.10;96.30;;;;;;4953631;29;20426;-73
2022/11/14 14:15:01;;;;;;;16.67;13.27;;;7.20;96.30;;;;;;4953479;28;20418;-73
2022/11/14 14:17:31;;;;;;;17.60;14.10;;;7.20;96.30;;;;;;4955595;29;20847;-73
2022/11/14 14:20:12;;;;;;;15.27;11.83;;;7.10;96.30;;;;;;4955789;29;20481;-73
2022/11/14 14:23:15;;;;;;;19.57;12.93;;;7.10;96.30;;;;;;4956706;29;20446;-73
2022/11/14 14:25:56;;;;;;;16.20;12.13;;;7.10;96.30;;;;;;4956265;29;20496;-73
2022/11/14 14:28:31;;;;;;;14.23;9.53;;;7.00;96.30;;;;;;4955838;28;20395;-73
2022/11/14 14:31:11;;;;;;;18.13;13.60;;;7.00;96.30;;;;;;4956794;28;20505;-73
2022/11/14 14:33:45;;;;;;;11.57;10.37;;;7.00;96.30;;;;;;4957333;29;20445;-74
2022/11/14 14:36:19;;;;;;;18.33;13.70;;;6.90;96.30;;;;;;4954700;29;20470;-74
2022/11/14 14:38:46;;;;;;;19.60;14.80;;;6.90;96.30;;;;;;4956992;29;20773;-74
2022/11/14 14:41:13;;;;;;;22.60;14.10;;;6.80;96.30;;;;;;4957260;29;20426;-74
2022/11/14 14:43:40;;;;;;;19.10;12.83;;;6.80;96.30;;;;;;4955881;29;20516;-73
2022/11/14 14:46:06;;;;;;;21.87;16.20;;;6.80;96.30;;;;;;4956836;29;20964;-73
2022/11/14 14:48:35;;;;;;;18.30;14.00;;;6.80;96.30;;;;;;4956224;29;20414;-73
2022/11/14 14:51:08;;;;;;;21.77;14.80;;;6.80;96.30;;;;;;4956841;29;20202;-73
2022/11/14 14:53:35;;;;;;;20.60;13.60;;;6.70;96.30;;;;;;4956789;29;20770;-73
2022/11/14 14:56:04;;;;;;;22.97;15.90;;;6.60;96.30;;;;;;4956887;29;20774;-74
2022/11/14 14:58:32;;;;;;;19.60;14.80;;;6.60;96.30;;;;;;4955972;29;20493;-73
2022/11/14 15:01:17;;;;;;;22.40;16.20;;;6.60;96.30;;;;;;4956007;29;20521;-73
2022/11/14 15:03:56;;;;;;;18.90;12.87;;;6.60;96.30;;;;;;4956635;29;20795;-73
2022/11/14 15:06:36;;;;;;;20.90;14.77;;;6.60;96.30;;;;;;4971333;28;20989;-74
2022/11/14 15:09:09;;;;;;;27.50;18.27;;;6.60;96.30;;;;;;4956059;29;20398;-74
2022/11/14 15:11:38;;;;;;;20.50;13.80;;;6.60;96.30;;;;;;4955816;28;20442;-74
2022/11/14 15:14:05;;;;;;;23.40;16.60;;;6.60;96.30;;;;;;4956112;29;20422;-74
2022/11/14 15:16:31;;;;;;;22.77;17.03;;;6.60;96.30;;;;;;4954459;29;20422;-74
2022/11/14 15:18:58;;;;;;;20.33;16.13;;;6.60;96.30;;;;;;4953357;29;20450;-73
2022/11/14 15:21:26;;;;;;;36.13;24.60;;;6.50;96.30;;;;;;4955903;29;20501;-73
2022/11/14 15:24:12;;;;;;;27.13;20.97;;;6.40;96.30;;;;;;4955836;29;20469;-73
2022/11/14 15:26:38;;;;;;;21.57;16.10;;;6.40;96.30;;;;;;4955267;28;20411;-74
2022/11/14 15:29:25;;;;;;;23.63;18.90;;;6.40;96.30;;;;;;4953134;28;21246;-73
